Terminal Aerodrome Forecast
Issued by NWS

Home | Current Version | Previous Version | Text Only | Print | Product List | Glossary On
Versions: 1 2 3 4 5 6 7 8 9 10 11 12 13 14 15 16 17 18
000
FTUS43 KDVN 291100
TAFBRL
TAF
KBRL 291130Z 2912/3012 27004KT P6SM SCT040 SCT250
      TEMPO 2912/2913 4SM BR
     FM300600 04007KT P6SM SCT030=

USA.gov is the U.S. government's official web portal to all federal, state and local government web resources and services.